sensor_id;sensor_type;location;lat;lon;timestamp;P1;durP1;ratioP1;P2;durP2;ratioP2
21101;SDS011;10709;49.006;12.100;2023-02-28T00:00:10;7.27;;;4.70;;
21101;SDS011;10709;49.006;12.100;2023-02-28T00:02:38;7.20;;;4.87;;
21101;SDS011;10709;49.006;12.100;2023-02-28T00:05:06;8.47;;;5.23;;
21101;SDS011;10709;49.006;12.100;2023-02-28T00:07:34;8.30;;;5.37;;
21101;SDS011;10709;49.006;12.100;2023-02-28T00:10:01;8.93;;;5.23;;
21101;SDS011;10709;49.006;12.100;2023-02-28T00:12:29;8.00;;;5.00;;
21101;SDS011;10709;49.006;12.100;2023-02-28T00:14:56;7.83;;;5.00;;
21101;SDS011;10709;49.006;12.100;2023-02-28T00:17:22;9.27;;;5.77;;
21101;SDS011;10709;49.006;12.100;2023-02-28T00:19:50;8.07;;;4.83;;
21101;SDS011;10709;49.006;12.100;2023-02-28T00:22:18;8.27;;;5.30;;
21101;SDS011;10709;49.006;12.100;2023-02-28T00:24:46;8.63;;;5.17;;
21101;SDS011;10709;49.006;12.100;2023-02-28T00:27:13;6.10;;;5.03;;
21101;SDS011;10709;49.006;12.100;2023-02-28T00:29:40;8.13;;;5.70;;
21101;SDS011;10709;49.006;12.100;2023-02-28T00:32:07;8.90;;;5.17;;
21101;SDS011;10709;49.006;12.100;2023-02-28T00:34:34;8.33;;;5.50;;
21101;SDS011;10709;49.006;12.100;2023-02-28T00:37:04;7.53;;;5.17;;
21101;SDS011;10709;49.006;12.100;2023-02-28T00:39:36;9.37;;;5.30;;
21101;SDS011;10709;49.006;12.100;2023-02-28T00:42:03;8.33;;;5.60;;
21101;SDS011;10709;49.006;12.100;2023-02-28T00:44:30;8.53;;;5.20;;
21101;SDS011;10709;49.006;12.100;2023-02-28T00:46:57;9.83;;;5.70;;
21101;SDS011;10709;49.006;12.100;2023-02-28T00:49:25;10.40;;;5.30;;
21101;SDS011;10709;49.006;12.100;2023-02-28T00:51:54;9.33;;;5.60;;
21101;SDS011;10709;49.006;12.100;2023-02-28T00:54:22;8.73;;;5.57;;
21101;SDS011;10709;49.006;12.100;2023-02-28T00:56:49;9.27;;;5.47;;
21101;SDS011;10709;49.006;12.100;2023-02-28T00:59:16;9.90;;;5.80;;
21101;SDS011;10709;49.006;12.100;2023-02-28T01:01:44;8.67;;;5.93;;
21101;SDS011;10709;49.006;12.100;2023-02-28T01:04:13;8.70;;;5.57;;
21101;SDS011;10709;49.006;12.100;2023-02-28T01:06:40;10.17;;;5.80;;
21101;SDS011;10709;49.006;12.100;2023-02-28T01:09:07;9.20;;;6.27;;
21101;SDS011;10709;49.006;12.100;2023-02-28T01:11:34;10.13;;;6.17;;
21101;SDS011;10709;49.006;12.100;2023-02-28T01:14:01;11.90;;;6.03;;
21101;SDS011;10709;49.006;12.100;2023-02-28T01:16:28;10.17;;;6.37;;
21101;SDS011;10709;49.006;12.100;2023-02-28T01:18:55;9.23;;;6.00;;
21101;SDS011;10709;49.006;12.100;2023-02-28T01:21:22;10.70;;;6.57;;
21101;SDS011;10709;49.006;12.100;2023-02-28T01:23:48;9.70;;;6.17;;
21101;SDS011;10709;49.006;12.100;2023-02-28T01:26:19;9.40;;;6.00;;
21101;SDS011;10709;49.006;12.100;2023-02-28T01:28:47;9.00;;;6.07;;
21101;SDS011;10709;49.006;12.100;2023-02-28T01:31:15;9.73;;;6.30;;
21101;SDS011;10709;49.006;12.100;2023-02-28T01:33:44;9.00;;;5.73;;
21101;SDS011;10709;49.006;12.100;2023-02-28T01:36:12;8.07;;;5.50;;
21101;SDS011;10709;49.006;12.100;2023-02-28T01:38:42;10.57;;;6.30;;
21101;SDS011;10709;49.006;12.100;2023-02-28T01:41:12;10.30;;;6.63;;
21101;SDS011;10709;49.006;12.100;2023-02-28T01:46:13;10.13;;;6.40;;
21101;SDS011;10709;49.006;12.100;2023-02-28T01:51:20;10.63;;;6.20;;
21101;SDS011;10709;49.006;12.100;2023-02-28T01:53:51;9.73;;;6.10;;
21101;SDS011;10709;49.006;12.100;2023-02-28T01:56:23;9.40;;;6.27;;
21101;SDS011;10709;49.006;12.100;2023-02-28T01:58:53;11.30;;;6.27;;
21101;SDS011;10709;49.006;12.100;2023-02-28T02:01:21;11.00;;;7.00;;
21101;SDS011;10709;49.006;12.100;2023-02-28T02:03:55;10.77;;;6.47;;
21101;SDS011;10709;49.006;12.100;2023-02-28T02:06:27;9.67;;;6.33;;
21101;SDS011;10709;49.006;12.100;2023-02-28T02:08:56;8.93;;;6.03;;
21101;SDS011;10709;49.006;12.100;2023-02-28T02:11:23;9.97;;;6.07;;
21101;SDS011;10709;49.006;12.100;2023-02-28T02:25:22;11.97;;;6.90;;
21101;SDS011;10709;49.006;12.100;2023-02-28T02:36:33;11.47;;;7.17;;
21101;SDS011;10709;49.006;12.100;2023-02-28T02:39:13;11.40;;;6.57;;
21101;SDS011;10709;49.006;12.100;2023-02-28T02:41:54;12.27;;;7.07;;
21101;SDS011;10709;49.006;12.100;2023-02-28T02:44:35;10.80;;;6.80;;
21101;SDS011;10709;49.006;12.100;2023-02-28T02:47:11;11.73;;;6.63;;
21101;SDS011;10709;49.006;12.100;2023-02-28T02:49:42;12.03;;;7.10;;
21101;SDS011;10709;49.006;12.100;2023-02-28T02:52:14;10.67;;;7.07;;
21101;SDS011;10709;49.006;12.100;2023-02-28T02:54:45;10.47;;;7.03;;
21101;SDS011;10709;49.006;12.100;2023-02-28T02:57:19;11.40;;;7.73;;
21101;SDS011;10709;49.006;12.100;2023-02-28T02:59:50;10.63;;;7.40;;
21101;SDS011;10709;49.006;12.100;2023-02-28T03:02:21;11.00;;;7.07;;
21101;SDS011;10709;49.006;12.100;2023-02-28T03:04:52;10.00;;;6.50;;
21101;SDS011;10709;49.006;12.100;2023-02-28T03:07:27;12.70;;;7.20;;
21101;SDS011;10709;49.006;12.100;2023-02-28T03:09:55;11.97;;;7.30;;
21101;SDS011;10709;49.006;12.100;2023-02-28T03:12:25;10.83;;;6.77;;
21101;SDS011;10709;49.006;12.100;2023-02-28T03:15:03;12.07;;;7.17;;
21101;SDS011;10709;49.006;12.100;2023-02-28T03:20:32;13.27;;;7.70;;
21101;SDS011;10709;49.006;12.100;2023-02-28T03:23:10;11.70;;;7.23;;
21101;SDS011;10709;49.006;12.100;2023-02-28T03:33:41;11.83;;;7.27;;
21101;SDS011;10709;49.006;12.100;2023-02-28T03:36:13;12.40;;;7.83;;
21101;SDS011;10709;49.006;12.100;2023-02-28T03:38:45;13.00;;;7.13;;
21101;SDS011;10709;49.006;12.100;2023-02-28T03:41:19;14.63;;;7.47;;
21101;SDS011;10709;49.006;12.100;2023-02-28T03:43:55;13.87;;;7.93;;
21101;SDS011;10709;49.006;12.100;2023-02-28T03:46:26;13.10;;;8.00;;
21101;SDS011;10709;49.006;12.100;2023-02-28T03:48:59;11.80;;;7.50;;
21101;SDS011;10709;49.006;12.100;2023-02-28T03:51:31;13.73;;;7.50;;
21101;SDS011;10709;49.006;12.100;2023-02-28T03:53:59;13.53;;;7.57;;
21101;SDS011;10709;49.006;12.100;2023-02-28T03:56:43;12.87;;;7.77;;
21101;SDS011;10709;49.006;12.100;2023-02-28T03:59:22;12.30;;;7.83;;
21101;SDS011;10709;49.006;12.100;2023-02-28T04:01:54;14.50;;;8.67;;
21101;SDS011;10709;49.006;12.100;2023-02-28T04:04:21;11.97;;;8.07;;
21101;SDS011;10709;49.006;12.100;2023-02-28T04:06:49;11.43;;;7.90;;
21101;SDS011;10709;49.006;12.100;2023-02-28T04:09:17;11.10;;;7.20;;
21101;SDS011;10709;49.006;12.100;2023-02-28T04:11:50;13.63;;;8.40;;
21101;SDS011;10709;49.006;12.100;2023-02-28T04:14:18;12.83;;;8.17;;
21101;SDS011;10709;49.006;12.100;2023-02-28T04:16:45;12.50;;;8.10;;
21101;SDS011;10709;49.006;12.100;2023-02-28T04:19:12;13.10;;;8.47;;
21101;SDS011;10709;49.006;12.100;2023-02-28T04:21:41;13.30;;;7.77;;
21101;SDS011;10709;49.006;12.100;2023-02-28T04:24:20;13.50;;;8.70;;
21101;SDS011;10709;49.006;12.100;2023-02-28T04:26:50;14.50;;;8.27;;
21101;SDS011;10709;49.006;12.100;2023-02-28T04:29:22;17.30;;;8.80;;
21101;SDS011;10709;49.006;12.100;2023-02-28T04:31:53;12.27;;;8.23;;
21101;SDS011;10709;49.006;12.100;2023-02-28T04:34:20;14.53;;;9.10;;
21101;SDS011;10709;49.006;12.100;2023-02-28T04:36:47;12.63;;;8.93;;
21101;SDS011;10709;49.006;12.100;2023-02-28T04:39:37;15.57;;;9.40;;
21101;SDS011;10709;49.006;12.100;2023-02-28T04:42:04;13.77;;;9.07;;
21101;SDS011;10709;49.006;12.100;2023-02-28T04:44:30;14.80;;;8.77;;
21101;SDS011;10709;49.006;12.100;2023-02-28T04:46:57;12.30;;;8.57;;
21101;SDS011;10709;49.006;12.100;2023-02-28T04:49:23;14.53;;;8.93;;
21101;SDS011;10709;49.006;12.100;2023-02-28T04:51:50;12.20;;;8.40;;
21101;SDS011;10709;49.006;12.100;2023-02-28T04:54:16;13.17;;;7.80;;
21101;SDS011;10709;49.006;12.100;2023-02-28T04:56:44;13.97;;;8.80;;
21101;SDS011;10709;49.006;12.100;2023-02-28T04:59:10;14.67;;;8.87;;
21101;SDS011;10709;49.006;12.100;2023-02-28T05:01:37;14.20;;;8.77;;
21101;SDS011;10709;49.006;12.100;2023-02-28T05:04:04;13.30;;;8.87;;
21101;SDS011;10709;49.006;12.100;2023-02-28T05:06:31;15.40;;;9.27;;
21101;SDS011;10709;49.006;12.100;2023-02-28T05:08:59;16.60;;;9.93;;
21101;SDS011;10709;49.006;12.100;2023-02-28T05:11:26;14.63;;;8.60;;
21101;SDS011;10709;49.006;12.100;2023-02-28T05:14:01;15.63;;;9.47;;
21101;SDS011;10709;49.006;12.100;2023-02-28T05:16:30;14.97;;;9.03;;
21101;SDS011;10709;49.006;12.100;2023-02-28T05:18:57;15.33;;;9.60;;
21101;SDS011;10709;49.006;12.100;2023-02-28T05:24:02;14.93;;;9.03;;
21101;SDS011;10709;49.006;12.100;2023-02-28T05:26:33;15.17;;;9.23;;
21101;SDS011;10709;49.006;12.100;2023-02-28T05:29:01;14.70;;;9.37;;
21101;SDS011;10709;49.006;12.100;2023-02-28T05:31:28;13.80;;;8.77;;
21101;SDS011;10709;49.006;12.100;2023-02-28T05:33:55;14.60;;;8.40;;
21101;SDS011;10709;49.006;12.100;2023-02-28T05:36:21;15.07;;;8.90;;
21101;SDS011;10709;49.006;12.100;2023-02-28T05:38:48;14.93;;;9.10;;
21101;SDS011;10709;49.006;12.100;2023-02-28T05:41:16;16.00;;;9.10;;
21101;SDS011;10709;49.006;12.100;2023-02-28T05:43:45;14.37;;;9.10;;
21101;SDS011;10709;49.006;12.100;2023-02-28T05:46:13;14.10;;;8.93;;
21101;SDS011;10709;49.006;12.100;2023-02-28T05:48:39;13.77;;;9.10;;
21101;SDS011;10709;49.006;12.100;2023-02-28T05:51:07;13.07;;;8.47;;
21101;SDS011;10709;49.006;12.100;2023-02-28T05:53:35;14.20;;;8.67;;
21101;SDS011;10709;49.006;12.100;2023-02-28T05:56:02;14.97;;;8.90;;
21101;SDS011;10709;49.006;12.100;2023-02-28T05:58:29;16.13;;;8.67;;
21101;SDS011;10709;49.006;12.100;2023-02-28T06:01:00;13.70;;;8.70;;
21101;SDS011;10709;49.006;12.100;2023-02-28T06:03:45;15.20;;;8.93;;
21101;SDS011;10709;49.006;12.100;2023-02-28T06:06:12;15.73;;;8.53;;
21101;SDS011;10709;49.006;12.100;2023-02-28T06:08:38;17.47;;;8.87;;
21101;SDS011;10709;49.006;12.100;2023-02-28T06:11:05;13.23;;;8.60;;
21101;SDS011;10709;49.006;12.100;2023-02-28T06:13:32;15.07;;;9.20;;
21101;SDS011;10709;49.006;12.100;2023-02-28T06:16:02;13.40;;;8.60;;
21101;SDS011;10709;49.006;12.100;2023-02-28T06:18:28;15.80;;;8.60;;
21101;SDS011;10709;49.006;12.100;2023-02-28T06:20:55;17.30;;;8.70;;
21101;SDS011;10709;49.006;12.100;2023-02-28T06:23:21;14.73;;;8.83;;
21101;SDS011;10709;49.006;12.100;2023-02-28T06:25:48;14.87;;;8.73;;
21101;SDS011;10709;49.006;12.100;2023-02-28T06:28:15;13.37;;;8.93;;
21101;SDS011;10709;49.006;12.100;2023-02-28T06:30:42;15.30;;;8.60;;
21101;SDS011;10709;49.006;12.100;2023-02-28T06:33:11;13.83;;;8.23;;
21101;SDS011;10709;49.006;12.100;2023-02-28T06:35:38;15.00;;;8.87;;
21101;SDS011;10709;49.006;12.100;2023-02-28T06:38:04;14.53;;;9.03;;
21101;SDS011;10709;49.006;12.100;2023-02-28T06:40:30;14.67;;;8.80;;
21101;SDS011;10709;49.006;12.100;2023-02-28T06:43:00;15.70;;;8.67;;
21101;SDS011;10709;49.006;12.100;2023-02-28T06:45:26;14.37;;;8.30;;
21101;SDS011;10709;49.006;12.100;2023-02-28T06:47:53;14.97;;;8.67;;
21101;SDS011;10709;49.006;12.100;2023-02-28T06:50:19;14.37;;;8.67;;
21101;SDS011;10709;49.006;12.100;2023-02-28T06:52:46;18.17;;;9.27;;
21101;SDS011;10709;49.006;12.100;2023-02-28T06:55:13;14.30;;;8.23;;
21101;SDS011;10709;49.006;12.100;2023-02-28T06:57:40;15.40;;;8.43;;
21101;SDS011;10709;49.006;12.100;2023-02-28T07:00:07;18.40;;;8.70;;
21101;SDS011;10709;49.006;12.100;2023-02-28T07:02:35;12.77;;;7.73;;
21101;SDS011;10709;49.006;12.100;2023-02-28T07:05:02;15.07;;;8.70;;
21101;SDS011;10709;49.006;12.100;2023-02-28T07:07:30;14.13;;;8.17;;
21101;SDS011;10709;49.006;12.100;2023-02-28T07:09:56;12.67;;;8.53;;
21101;SDS011;10709;49.006;12.100;2023-02-28T07:12:22;15.10;;;8.53;;
21101;SDS011;10709;49.006;12.100;2023-02-28T07:14:49;15.43;;;8.80;;
21101;SDS011;10709;49.006;12.100;2023-02-28T07:17:16;12.97;;;8.37;;
21101;SDS011;10709;49.006;12.100;2023-02-28T07:19:42;15.73;;;8.97;;
21101;SDS011;10709;49.006;12.100;2023-02-28T07:22:09;13.03;;;8.13;;
21101;SDS011;10709;49.006;12.100;2023-02-28T07:24:35;15.40;;;8.57;;
21101;SDS011;10709;49.006;12.100;2023-02-28T07:27:02;13.77;;;8.93;;
21101;SDS011;10709;49.006;12.100;2023-02-28T07:29:29;13.70;;;8.50;;
21101;SDS011;10709;49.006;12.100;2023-02-28T07:31:55;13.90;;;8.70;;
21101;SDS011;10709;49.006;12.100;2023-02-28T07:34:22;14.03;;;8.53;;
21101;SDS011;10709;49.006;12.100;2023-02-28T07:36:52;15.83;;;8.40;;
21101;SDS011;10709;49.006;12.100;2023-02-28T07:39:20;12.27;;;8.17;;
21101;SDS011;10709;49.006;12.100;2023-02-28T07:41:47;15.50;;;8.73;;
21101;SDS011;10709;49.006;12.100;2023-02-28T07:44:13;12.87;;;8.50;;
21101;SDS011;10709;49.006;12.100;2023-02-28T07:46:40;13.50;;;8.20;;
21101;SDS011;10709;49.006;12.100;2023-02-28T07:49:07;14.67;;;8.67;;
21101;SDS011;10709;49.006;12.100;2023-02-28T07:51:33;11.37;;;8.13;;
21101;SDS011;10709;49.006;12.100;2023-02-28T07:54:00;13.60;;;8.50;;
21101;SDS011;10709;49.006;12.100;2023-02-28T07:56:27;13.90;;;9.17;;
21101;SDS011;10709;49.006;12.100;2023-02-28T07:58:54;15.67;;;8.53;;
21101;SDS011;10709;49.006;12.100;2023-02-28T08:01:20;14.77;;;8.90;;
21101;SDS011;10709;49.006;12.100;2023-02-28T08:03:47;14.53;;;8.60;;
21101;SDS011;10709;49.006;12.100;2023-02-28T08:06:16;17.33;;;9.63;;
21101;SDS011;10709;49.006;12.100;2023-02-28T08:08:43;15.53;;;8.70;;
21101;SDS011;10709;49.006;12.100;2023-02-28T08:11:10;16.60;;;8.63;;
21101;SDS011;10709;49.006;12.100;2023-02-28T08:13:36;16.37;;;8.67;;
21101;SDS011;10709;49.006;12.100;2023-02-28T08:16:03;20.67;;;9.43;;
21101;SDS011;10709;49.006;12.100;2023-02-28T08:18:30;15.53;;;9.37;;
21101;SDS011;10709;49.006;12.100;2023-02-28T08:20:58;15.33;;;9.33;;
21101;SDS011;10709;49.006;12.100;2023-02-28T08:23:25;14.13;;;9.07;;
21101;SDS011;10709;49.006;12.100;2023-02-28T08:25:55;14.37;;;8.97;;
21101;SDS011;10709;49.006;12.100;2023-02-28T08:28:22;12.40;;;8.30;;
21101;SDS011;10709;49.006;12.100;2023-02-28T08:30:52;18.80;;;9.93;;
21101;SDS011;10709;49.006;12.100;2023-02-28T08:33:18;13.63;;;8.73;;
21101;SDS011;10709;49.006;12.100;2023-02-28T08:35:45;13.83;;;8.80;;
21101;SDS011;10709;49.006;12.100;2023-02-28T08:38:11;17.13;;;9.60;;
21101;SDS011;10709;49.006;12.100;2023-02-28T08:40:38;14.47;;;8.90;;
21101;SDS011;10709;49.006;12.100;2023-02-28T08:43:04;14.93;;;8.90;;
21101;SDS011;10709;49.006;12.100;2023-02-28T08:45:31;17.30;;;9.93;;
21101;SDS011;10709;49.006;12.100;2023-02-28T08:47:57;16.20;;;9.00;;
21101;SDS011;10709;49.006;12.100;2023-02-28T08:50:23;15.60;;;9.30;;
21101;SDS011;10709;49.006;12.100;2023-02-28T08:52:50;16.47;;;9.27;;
21101;SDS011;10709;49.006;12.100;2023-02-28T08:55:17;14.93;;;9.37;;
21101;SDS011;10709;49.006;12.100;2023-02-28T08:57:43;18.63;;;9.70;;
21101;SDS011;10709;49.006;12.100;2023-02-28T09:00:10;16.97;;;9.90;;
21101;SDS011;10709;49.006;12.100;2023-02-28T09:02:40;15.53;;;9.93;;
21101;SDS011;10709;49.006;12.100;2023-02-28T09:05:08;14.53;;;8.93;;
21101;SDS011;10709;49.006;12.100;2023-02-28T09:07:35;15.93;;;9.37;;
21101;SDS011;10709;49.006;12.100;2023-02-28T09:10:02;17.50;;;9.57;;
21101;SDS011;10709;49.006;12.100;2023-02-28T09:12:28;15.50;;;9.17;;
21101;SDS011;10709;49.006;12.100;2023-02-28T09:15:00;15.90;;;9.47;;
21101;SDS011;10709;49.006;12.100;2023-02-28T09:17:27;14.87;;;9.33;;
21101;SDS011;10709;49.006;12.100;2023-02-28T09:19:56;17.80;;;9.27;;
21101;SDS011;10709;49.006;12.100;2023-02-28T09:22:23;15.00;;;9.17;;
21101;SDS011;10709;49.006;12.100;2023-02-28T09:24:49;14.60;;;9.60;;
21101;SDS011;10709;49.006;12.100;2023-02-28T09:27:16;15.20;;;9.53;;
21101;SDS011;10709;49.006;12.100;2023-02-28T09:29:43;21.23;;;10.47;;
21101;SDS011;10709;49.006;12.100;2023-02-28T09:32:09;16.97;;;9.30;;
21101;SDS011;10709;49.006;12.100;2023-02-28T09:34:36;17.67;;;9.40;;
21101;SDS011;10709;49.006;12.100;2023-02-28T09:37:03;15.33;;;9.53;;
21101;SDS011;10709;49.006;12.100;2023-02-28T09:39:30;14.97;;;9.20;;
21101;SDS011;10709;49.006;12.100;2023-02-28T09:41:57;16.73;;;9.33;;
21101;SDS011;10709;49.006;12.100;2023-02-28T09:44:26;25.10;;;10.67;;
21101;SDS011;10709;49.006;12.100;2023-02-28T09:46:59;14.83;;;9.40;;
21101;SDS011;10709;49.006;12.100;2023-02-28T09:49:39;15.17;;;9.13;;
21101;SDS011;10709;49.006;12.100;2023-02-28T09:52:10;16.00;;;9.23;;
21101;SDS011;10709;49.006;12.100;2023-02-28T09:54:39;17.90;;;10.17;;
21101;SDS011;10709;49.006;12.100;2023-02-28T09:57:08;17.17;;;9.80;;
21101;SDS011;10709;49.006;12.100;2023-02-28T10:02:50;12.63;;;9.23;;
21101;SDS011;10709;49.006;12.100;2023-02-28T10:05:40;14.47;;;9.60;;
21101;SDS011;10709;49.006;12.100;2023-02-28T10:08:14;14.23;;;9.63;;
21101;SDS011;10709;49.006;12.100;2023-02-28T10:10:45;15.47;;;10.27;;
21101;SDS011;10709;49.006;12.100;2023-02-28T10:15:51;17.37;;;9.47;;
21101;SDS011;10709;49.006;12.100;2023-02-28T10:18:26;15.37;;;9.40;;
21101;SDS011;10709;49.006;12.100;2023-02-28T10:20:56;12.77;;;8.13;;
21101;SDS011;10709;49.006;12.100;2023-02-28T10:23:34;16.43;;;9.40;;
21101;SDS011;10709;49.006;12.100;2023-02-28T10:26:09;15.00;;;9.40;;
21101;SDS011;10709;49.006;12.100;2023-02-28T10:28:39;15.60;;;9.30;;
21101;SDS011;10709;49.006;12.100;2023-02-28T10:31:06;15.63;;;9.90;;
21101;SDS011;10709;49.006;12.100;2023-02-28T10:33:37;14.90;;;9.93;;
21101;SDS011;10709;49.006;12.100;2023-02-28T10:36:04;16.50;;;9.47;;
21101;SDS011;10709;49.006;12.100;2023-02-28T10:38:37;18.27;;;9.60;;
21101;SDS011;10709;49.006;12.100;2023-02-28T10:41:06;15.30;;;10.20;;
21101;SDS011;10709;49.006;12.100;2023-02-28T10:43:35;17.63;;;9.60;;
21101;SDS011;10709;49.006;12.100;2023-02-28T10:46:04;13.67;;;8.67;;
21101;SDS011;10709;49.006;12.100;2023-02-28T10:48:39;15.47;;;9.57;;
21101;SDS011;10709;49.006;12.100;2023-02-28T10:51:14;16.27;;;10.23;;
21101;SDS011;10709;49.006;12.100;2023-02-28T10:56:25;15.93;;;9.40;;
21101;SDS011;10709;49.006;12.100;2023-02-28T10:58:54;13.00;;;8.90;;
21101;SDS011;10709;49.006;12.100;2023-02-28T11:01:46;15.00;;;9.10;;
21101;SDS011;10709;49.006;12.100;2023-02-28T11:09:34;15.17;;;9.63;;
21101;SDS011;10709;49.006;12.100;2023-02-28T11:12:05;14.47;;;9.17;;
21101;SDS011;10709;49.006;12.100;2023-02-28T11:14:49;16.57;;;9.60;;
21101;SDS011;10709;49.006;12.100;2023-02-28T11:17:22;16.53;;;10.53;;
21101;SDS011;10709;49.006;12.100;2023-02-28T11:19:56;17.57;;;9.53;;
21101;SDS011;10709;49.006;12.100;2023-02-28T11:22:26;13.60;;;9.00;;
21101;SDS011;10709;49.006;12.100;2023-02-28T11:24:55;14.17;;;8.60;;
21101;SDS011;10709;49.006;12.100;2023-02-28T11:30:12;13.27;;;9.20;;
21101;SDS011;10709;49.006;12.100;2023-02-28T11:32:49;17.13;;;9.67;;
21101;SDS011;10709;49.006;12.100;2023-02-28T11:35:23;27.33;;;12.80;;
21101;SDS011;10709;49.006;12.100;2023-02-28T11:37:53;17.47;;;10.00;;
21101;SDS011;10709;49.006;12.100;2023-02-28T11:40:26;16.03;;;9.67;;
21101;SDS011;10709;49.006;12.100;2023-02-28T11:43:16;14.97;;;9.60;;
21101;SDS011;10709;49.006;12.100;2023-02-28T11:45:51;18.00;;;11.00;;
21101;SDS011;10709;49.006;12.100;2023-02-28T11:48:22;19.40;;;11.07;;
21101;SDS011;10709;49.006;12.100;2023-02-28T11:51:00;15.50;;;10.07;;
21101;SDS011;10709;49.006;12.100;2023-02-28T11:53:47;15.30;;;9.30;;
21101;SDS011;10709;49.006;12.100;2023-02-28T12:04:52;14.93;;;9.67;;
21101;SDS011;10709;49.006;12.100;2023-02-28T12:07:46;14.60;;;9.83;;
21101;SDS011;10709;49.006;12.100;2023-02-28T12:10:25;16.77;;;10.30;;
21101;SDS011;10709;49.006;12.100;2023-02-28T12:13:01;16.37;;;9.80;;
21101;SDS011;10709;49.006;12.100;2023-02-28T12:16:04;13.67;;;9.60;;
21101;SDS011;10709;49.006;12.100;2023-02-28T12:27:34;15.90;;;10.23;;
21101;SDS011;10709;49.006;12.100;2023-02-28T12:30:06;14.90;;;9.50;;
21101;SDS011;10709;49.006;12.100;2023-02-28T12:32:52;18.70;;;11.90;;
21101;SDS011;10709;49.006;12.100;2023-02-28T12:35:33;26.80;;;13.13;;
21101;SDS011;10709;49.006;12.100;2023-02-28T12:40:52;14.33;;;10.63;;
21101;SDS011;10709;49.006;12.100;2023-02-28T12:43:22;15.10;;;10.13;;
21101;SDS011;10709;49.006;12.100;2023-02-28T12:45:57;17.20;;;10.50;;
21101;SDS011;10709;49.006;12.100;2023-02-28T12:48:29;16.37;;;10.47;;
21101;SDS011;10709;49.006;12.100;2023-02-28T12:51:04;16.43;;;9.70;;
21101;SDS011;10709;49.006;12.100;2023-02-28T12:56:30;15.70;;;10.20;;
21101;SDS011;10709;49.006;12.100;2023-02-28T12:59:46;15.83;;;10.10;;
21101;SDS011;10709;49.006;12.100;2023-02-28T13:11:07;16.33;;;9.87;;
21101;SDS011;10709;49.006;12.100;2023-02-28T13:13:46;16.40;;;9.57;;
21101;SDS011;10709;49.006;12.100;2023-02-28T13:16:13;13.90;;;9.60;;
21101;SDS011;10709;49.006;12.100;2023-02-28T13:18:40;13.83;;;9.23;;
21101;SDS011;10709;49.006;12.100;2023-02-28T13:21:28;17.40;;;9.70;;
21101;SDS011;10709;49.006;12.100;2023-02-28T13:23:57;15.10;;;9.47;;
21101;SDS011;10709;49.006;12.100;2023-02-28T13:32:18;14.70;;;9.70;;
21101;SDS011;10709;49.006;12.100;2023-02-28T13:42:33;16.33;;;10.30;;
21101;SDS011;10709;49.006;12.100;2023-02-28T13:56:03;16.77;;;9.87;;
21101;SDS011;10709;49.006;12.100;2023-02-28T14:01:31;14.97;;;9.40;;
21101;SDS011;10709;49.006;12.100;2023-02-28T14:07:59;14.37;;;9.00;;
21101;SDS011;10709;49.006;12.100;2023-02-28T14:10:15;15.93;;;9.40;;
21101;SDS011;10709;49.006;12.100;2023-02-28T14:18:02;13.87;;;9.70;;
21101;SDS011;10709;49.006;12.100;2023-02-28T14:20:32;14.73;;;9.60;;
21101;SDS011;10709;49.006;12.100;2023-02-28T14:25:54;14.60;;;9.43;;
21101;SDS011;10709;49.006;12.100;2023-02-28T14:31:13;16.30;;;10.23;;
21101;SDS011;10709;49.006;12.100;2023-02-28T14:33:57;16.37;;;9.93;;
21101;SDS011;10709;49.006;12.100;2023-02-28T14:36:26;15.17;;;10.00;;
21101;SDS011;10709;49.006;12.100;2023-02-28T14:38:59;14.77;;;9.43;;
21101;SDS011;10709;49.006;12.100;2023-02-28T14:44:01;17.83;;;10.23;;
21101;SDS011;10709;49.006;12.100;2023-02-28T14:46:40;16.93;;;10.23;;
21101;SDS011;10709;49.006;12.100;2023-02-28T14:49:18;13.83;;;9.73;;
21101;SDS011;10709;49.006;12.100;2023-02-28T14:51:49;15.87;;;10.10;;
21101;SDS011;10709;49.006;12.100;2023-02-28T14:54:27;14.87;;;10.17;;
21101;SDS011;10709;49.006;12.100;2023-02-28T14:56:55;14.20;;;9.30;;
21101;SDS011;10709;49.006;12.100;2023-02-28T14:59:28;15.40;;;10.10;;
21101;SDS011;10709;49.006;12.100;2023-02-28T15:02:13;15.37;;;10.47;;
21101;SDS011;10709;49.006;12.100;2023-02-28T15:04:55;16.23;;;10.33;;
21101;SDS011;10709;49.006;12.100;2023-02-28T15:07:23;15.47;;;9.67;;
21101;SDS011;10709;49.006;12.100;2023-02-28T15:12:43;13.33;;;9.43;;
21101;SDS011;10709;49.006;12.100;2023-02-28T15:15:17;16.63;;;10.60;;
21101;SDS011;10709;49.006;12.100;2023-02-28T15:17:45;17.37;;;11.10;;
21101;SDS011;10709;49.006;12.100;2023-02-28T15:20:16;13.03;;;9.27;;
21101;SDS011;10709;49.006;12.100;2023-02-28T15:22:44;16.23;;;10.23;;
21101;SDS011;10709;49.006;12.100;2023-02-28T15:25:14;17.60;;;9.67;;
21101;SDS011;10709;49.006;12.100;2023-02-28T15:27:45;15.70;;;10.50;;
21101;SDS011;10709;49.006;12.100;2023-02-28T15:30:20;19.40;;;10.53;;
21101;SDS011;10709;49.006;12.100;2023-02-28T15:33:17;18.37;;;10.87;;
21101;SDS011;10709;49.006;12.100;2023-02-28T15:35:49;16.23;;;10.90;;
21101;SDS011;10709;49.006;12.100;2023-02-28T15:38:18;17.83;;;11.20;;
21101;SDS011;10709;49.006;12.100;2023-02-28T15:40:53;16.27;;;10.87;;
21101;SDS011;10709;49.006;12.100;2023-02-28T15:43:34;17.23;;;11.17;;
21101;SDS011;10709;49.006;12.100;2023-02-28T15:46:09;19.37;;;10.87;;
21101;SDS011;10709;49.006;12.100;2023-02-28T15:48:43;18.67;;;10.93;;
21101;SDS011;10709;49.006;12.100;2023-02-28T15:51:21;17.83;;;10.53;;
21101;SDS011;10709;49.006;12.100;2023-02-28T15:56:25;18.07;;;10.93;;
21101;SDS011;10709;49.006;12.100;2023-02-28T15:59:01;15.33;;;10.43;;
21101;SDS011;10709;49.006;12.100;2023-02-28T16:01:30;16.90;;;10.47;;
21101;SDS011;10709;49.006;12.100;2023-02-28T16:04:00;19.07;;;11.70;;
21101;SDS011;10709;49.006;12.100;2023-02-28T16:06:46;17.33;;;11.73;;
21101;SDS011;10709;49.006;12.100;2023-02-28T16:09:28;17.60;;;11.30;;
21101;SDS011;10709;49.006;12.100;2023-02-28T16:12:00;18.37;;;11.70;;
21101;SDS011;10709;49.006;12.100;2023-02-28T16:14:28;18.47;;;11.27;;
21101;SDS011;10709;49.006;12.100;2023-02-28T16:16:57;20.20;;;12.50;;
21101;SDS011;10709;49.006;12.100;2023-02-28T16:19:31;18.10;;;12.00;;
21101;SDS011;10709;49.006;12.100;2023-02-28T16:21:59;20.43;;;12.00;;
21101;SDS011;10709;49.006;12.100;2023-02-28T16:24:26;22.00;;;11.70;;
21101;SDS011;10709;49.006;12.100;2023-02-28T16:26:53;20.10;;;12.20;;
21101;SDS011;10709;49.006;12.100;2023-02-28T16:29:26;19.17;;;12.23;;
21101;SDS011;10709;49.006;12.100;2023-02-28T16:31:55;20.93;;;12.00;;
21101;SDS011;10709;49.006;12.100;2023-02-28T16:34:22;18.77;;;11.40;;
21101;SDS011;10709;49.006;12.100;2023-02-28T16:36:49;19.60;;;12.37;;
21101;SDS011;10709;49.006;12.100;2023-02-28T16:39:16;21.23;;;12.83;;
21101;SDS011;10709;49.006;12.100;2023-02-28T16:41:45;21.33;;;12.40;;
21101;SDS011;10709;49.006;12.100;2023-02-28T16:44:15;22.57;;;13.43;;
21101;SDS011;10709;49.006;12.100;2023-02-28T16:46:50;20.53;;;12.97;;
21101;SDS011;10709;49.006;12.100;2023-02-28T16:49:16;20.87;;;12.83;;
21101;SDS011;10709;49.006;12.100;2023-02-28T16:51:43;21.43;;;13.30;;
21101;SDS011;10709;49.006;12.100;2023-02-28T16:54:09;21.50;;;13.50;;
21101;SDS011;10709;49.006;12.100;2023-02-28T16:56:36;21.47;;;13.53;;